createdAt,value
2019-05-12T00:01:59.579Z,54.90
2019-05-12T00:04:31.559Z,55.05
2019-05-12T00:07:04.745Z,55.07
2019-05-12T00:09:38.761Z,55.34
2019-05-12T00:12:10.359Z,55.48
2019-05-12T00:14:42.391Z,55.40
2019-05-12T00:17:14.339Z,55.53
2019-05-12T00:19:47.949Z,55.62
2019-05-12T00:22:22.579Z,55.54
2019-05-12T00:24:54.621Z,55.60
2019-05-12T00:27:28.463Z,55.52
2019-05-12T00:30:00.861Z,55.56
2019-05-12T00:32:32.910Z,55.38
2019-05-12T00:35:07.657Z,55.50
2019-05-12T00:37:38.801Z,55.49
2019-05-12T00:40:11.144Z,55.76
2019-05-12T00:42:43.101Z,55.83
2019-05-12T00:45:15.123Z,55.97
2019-05-12T00:47:48.064Z,55.96
2019-05-12T00:50:20.173Z,56.21
2019-05-12T00:52:52.187Z,56.77
2019-05-12T00:55:24.157Z,56.84
2019-05-12T00:57:58.203Z,57.03
2019-05-12T01:00:30.305Z,57.33
2019-05-12T01:03:02.291Z,57.48
2019-05-12T01:05:38.013Z,57.73
2019-05-12T01:08:09.713Z,57.98
2019-05-12T01:10:41.891Z,58.24
2019-05-12T01:13:13.973Z,58.33
2019-05-12T01:15:48.025Z,58.84
2019-05-12T01:18:19.764Z,59.70
2019-05-12T01:20:51.706Z,60.17
2019-05-12T01:23:23.756Z,60.46
2019-05-12T01:25:58.298Z,60.70
2019-05-12T01:28:30.099Z,60.79
2019-05-12T01:31:03.737Z,61.10
2019-05-12T01:33:37.963Z,60.95
2019-05-12T01:36:09.409Z,60.47
2019-05-12T01:38:41.473Z,60.01
2019-05-12T01:41:13.521Z,59.69
2019-05-12T01:43:45.487Z,59.47
2019-05-12T01:46:18.117Z,59.32
2019-05-12T01:48:50.646Z,59.77
2019-05-12T01:51:22.821Z,61.21
2019-05-12T01:54:08.549Z,62.38
2019-05-12T01:56:28.911Z,61.80
2019-05-12T01:59:00.967Z,61.76
2019-05-12T02:01:33.684Z,62.22
2019-05-12T02:04:07.789Z,61.87
2019-05-12T02:06:39.965Z,61.42
2019-05-12T02:09:14.575Z,61.26
2019-05-12T02:11:48.348Z,61.04
2019-05-12T02:14:20.485Z,61.14
2019-05-12T02:16:52.433Z,60.99
2019-05-12T02:19:24.423Z,60.85
2019-05-12T02:21:57.942Z,61.81
2019-05-12T02:24:30.640Z,64.09
2019-05-12T02:27:02.847Z,65.82
2019-05-12T02:29:34.917Z,66.50
2019-05-12T02:32:06.898Z,66.26
2019-05-12T02:34:38.889Z,66.32
2019-05-12T02:37:11.133Z,67.08
2019-05-12T02:39:44.877Z,68.20
2019-05-12T02:42:16.961Z,67.91
2019-05-12T02:44:48.954Z,68.04
2019-05-12T02:47:23.847Z,67.83
2019-05-12T02:49:55.028Z,67.76
2019-05-12T02:52:27.168Z,68.30
2019-05-12T02:55:00.863Z,67.97
2019-05-12T02:57:34.936Z,67.93
2019-05-12T03:00:09.973Z,67.82
2019-05-12T03:02:44.934Z,68.16
2019-05-12T03:05:16.909Z,68.16
2019-05-12T03:07:50.999Z,68.50
2019-05-12T03:10:25.257Z,68.54
2019-05-12T03:12:56.704Z,68.88
2019-05-12T03:15:28.698Z,68.70
2019-05-12T03:18:01.067Z,69.13
2019-05-12T03:20:35.040Z,68.94
2019-05-12T03:23:07.110Z,68.60
2019-05-12T03:25:39.294Z,68.30
2019-05-12T03:28:11.245Z,68.10
2019-05-12T03:30:48.383Z,67.99
2019-05-12T03:33:19.525Z,68.02
2019-05-12T03:35:54.985Z,67.81
2019-05-12T03:38:27.815Z,67.55
2019-05-12T03:40:58.383Z,67.38
2019-05-12T03:43:30.635Z,67.52
2019-05-12T03:46:05.268Z,68.95
2019-05-12T03:48:36.343Z,68.92
2019-05-12T03:51:08.286Z,69.23
2019-05-12T03:53:40.269Z,69.02
2019-05-12T03:56:15.052Z,69.08
2019-05-12T03:58:45.954Z,69.17
2019-05-12T04:01:17.890Z,68.87
2019-05-12T04:03:50.004Z,68.88
2019-05-12T04:06:24.542Z,68.82
2019-05-12T04:08:59.923Z,68.91
2019-05-12T04:11:30.761Z,68.72
2019-05-12T04:14:05.474Z,68.38
2019-05-12T04:16:36.847Z,68.26
2019-05-12T04:19:09.122Z,68.19
2019-05-12T04:21:44.364Z,68.18
2019-05-12T04:24:15.087Z,67.92
2019-05-12T04:26:47.249Z,67.36
2019-05-12T04:29:19.224Z,66.82
2019-05-12T04:31:51.169Z,66.38
2019-05-12T04:34:25.085Z,66.24
2019-05-12T04:36:57.035Z,65.61
2019-05-12T04:39:29.017Z,64.92
2019-05-12T04:42:01.253Z,64.12
2019-05-12T04:44:34.681Z,63.18
2019-05-12T04:47:07.067Z,61.02
2019-05-12T04:49:39.028Z,59.27
2019-05-12T04:52:11.168Z,57.17
2019-05-12T04:54:44.487Z,54.42
2019-05-12T04:57:20.841Z,51.67
2019-05-12T04:59:54.093Z,48.75
2019-05-12T05:02:25.240Z,42.82
2019-05-12T05:04:57.370Z,37.92
2019-05-12T05:07:29.315Z,34.31
2019-05-12T05:10:04.460Z,29.92
2019-05-12T05:12:35.114Z,27.45
2019-05-12T05:15:08.887Z,25.00
2019-05-12T05:17:43.978Z,24.85
2019-05-12T05:20:15.109Z,26.20
2019-05-12T05:22:47.106Z,25.53
2019-05-12T05:25:19.041Z,24.76
2019-05-12T05:27:53.249Z,26.77
2019-05-12T05:30:27.168Z,28.31
2019-05-12T05:32:59.216Z,30.98
2019-05-12T05:35:37.177Z,33.23
2019-05-12T05:38:04.951Z,34.90
2019-05-12T05:40:36.908Z,36.48
2019-05-12T05:43:13.888Z,37.97
2019-05-12T05:45:43.823Z,39.75
2019-05-12T05:48:15.929Z,41.13
2019-05-12T05:50:47.897Z,42.87
2019-05-12T05:53:20.313Z,44.61
2019-05-12T05:55:56.316Z,46.06
2019-05-12T05:58:26.331Z,47.34
2019-05-12T06:01:03.872Z,48.20
2019-05-12T06:03:33.861Z,49.16
2019-05-12T06:06:10.722Z,50.10
2019-05-12T06:08:39.921Z,51.54
2019-05-12T06:11:16.895Z,53.13
2019-05-12T06:13:46.667Z,53.89
2019-05-12T06:16:20.771Z,55.49
2019-05-12T06:18:54.403Z,56.37
2019-05-12T06:21:29.105Z,57.17
2019-05-12T06:23:59.886Z,57.86
2019-05-12T06:26:35.307Z,58.50
2019-05-12T06:29:05.622Z,58.76
2019-05-12T06:31:40.280Z,59.48
2019-05-12T06:34:15.165Z,59.65
2019-05-12T06:36:46.104Z,59.94
2019-05-12T06:39:20.589Z,59.60
2019-05-12T06:41:55.187Z,59.77
2019-05-12T06:44:25.788Z,60.45
2019-05-12T06:47:03.301Z,60.80
2019-05-12T06:49:33.741Z,60.68
2019-05-12T06:52:07.185Z,60.58
2019-05-12T06:54:44.521Z,60.27
2019-05-12T06:57:24.195Z,59.88
2019-05-12T06:59:50.988Z,59.71
2019-05-12T07:02:20.214Z,59.01
2019-05-12T07:04:57.276Z,58.52
2019-05-12T07:07:27.725Z,58.92
2019-05-12T07:10:10.450Z,59.31
2019-05-12T07:12:43.487Z,59.57
2019-05-12T07:15:11.124Z,60.26
2019-05-12T07:17:57.111Z,61.16
2019-05-12T07:20:34.160Z,61.27
2019-05-12T07:23:03.967Z,61.70
2019-05-12T07:25:36.776Z,61.96
2019-05-12T07:28:09.145Z,61.57
2019-05-12T07:30:43.905Z,61.93
2019-05-12T07:33:15.637Z,60.97
2019-05-12T07:35:53.370Z,61.47
2019-05-12T07:38:26.031Z,61.42
2019-05-12T07:41:00.711Z,61.73
2019-05-12T07:43:34.157Z,62.02
2019-05-12T07:46:07.248Z,61.50
2019-05-12T07:48:40.255Z,61.77
2019-05-12T07:51:13.875Z,61.25
2019-05-12T07:53:54.249Z,60.13
2019-05-12T07:56:27.625Z,58.92
2019-05-12T07:58:56.915Z,57.43
2019-05-12T08:01:27.787Z,56.72
2019-05-12T08:04:01.303Z,56.92
2019-05-12T08:06:41.399Z,57.72
2019-05-12T08:09:08.503Z,57.94
2019-05-12T08:11:40.751Z,57.53
2019-05-12T08:14:24.826Z,57.47
2019-05-12T08:16:46.458Z,57.79
2019-05-12T08:19:23.867Z,57.77
2019-05-12T08:21:53.771Z,57.21
2019-05-12T08:24:26.003Z,56.52
2019-05-12T08:27:03.001Z,56.55
2019-05-12T08:29:34.137Z,56.42
2019-05-12T08:32:09.927Z,55.49
2019-05-12T08:34:39.969Z,54.39
2019-05-12T08:37:13.952Z,53.82
2019-05-12T08:39:46.082Z,52.54
2019-05-12T08:42:18.065Z,52.25
2019-05-12T08:44:50.551Z,51.67
2019-05-12T08:47:23.868Z,51.78
2019-05-12T08:49:58.745Z,52.05
2019-05-12T08:52:30.570Z,52.14
2019-05-12T08:55:04.404Z,53.17
2019-05-12T08:57:40.621Z,52.91
2019-05-12T09:00:13.284Z,52.73
2019-05-12T09:02:50.297Z,53.31
2019-05-12T09:05:18.864Z,51.86
2019-05-12T09:07:54.127Z,50.80
2019-05-12T09:10:26.141Z,51.31
2019-05-12T09:12:58.295Z,54.13
2019-05-12T09:15:30.542Z,56.30
2019-05-12T09:18:04.854Z,58.09
2019-05-12T09:20:39.415Z,59.17
2019-05-12T09:23:10.660Z,58.50
2019-05-12T09:25:45.074Z,58.39
2019-05-12T09:28:16.603Z,57.23
2019-05-12T09:30:49.511Z,54.80
2019-05-12T09:33:26.778Z,55.03
2019-05-12T09:35:55.389Z,56.58
2019-05-12T09:38:27.436Z,57.48
2019-05-12T09:41:01.076Z,57.75
2019-05-12T09:43:34.397Z,58.07
2019-05-12T09:46:06.566Z,57.86
2019-05-12T09:48:39.113Z,57.77
2019-05-12T09:51:13.331Z,57.03
2019-05-12T09:53:50.799Z,56.29
2019-05-12T09:56:19.843Z,55.22
2019-05-12T09:59:01.584Z,55.62
2019-05-12T10:01:29.249Z,56.91
2019-05-12T10:03:59.380Z,56.51
2019-05-12T10:06:33.776Z,56.77
2019-05-12T10:09:08.924Z,56.00
2019-05-12T10:11:40.271Z,54.72
2019-05-12T10:14:13.988Z,53.42
2019-05-12T10:16:49.727Z,51.56
2019-05-12T10:19:20.222Z,50.60
2019-05-12T10:21:55.310Z,51.69
2019-05-12T10:24:26.049Z,51.99
2019-05-12T10:26:58.043Z,51.30
2019-05-12T10:29:32.447Z,51.63
2019-05-12T10:32:04.529Z,50.86
2019-05-12T10:34:40.253Z,49.20
2019-05-12T10:37:10.644Z,49.77
2019-05-12T10:39:42.674Z,50.07
2019-05-12T10:42:14.727Z,50.39
2019-05-12T10:44:46.733Z,50.87
2019-05-12T10:47:18.821Z,51.70
2019-05-12T10:49:50.927Z,52.64
2019-05-12T10:52:24.396Z,54.08
2019-05-12T10:54:56.554Z,55.90
2019-05-12T10:57:28.622Z,56.03
2019-05-12T11:00:01.047Z,55.47
2019-05-12T11:02:33.651Z,54.62
2019-05-12T11:05:12.434Z,53.95
2019-05-12T11:07:43.451Z,53.64
2019-05-12T11:10:19.834Z,53.80
2019-05-12T11:12:48.887Z,54.49
2019-05-12T11:15:21.345Z,54.05
2019-05-12T11:18:08.279Z,54.32
2019-05-12T11:20:40.636Z,54.95
2019-05-12T11:23:13.755Z,55.27
2019-05-12T11:25:45.917Z,54.35
2019-05-12T11:28:18.058Z,52.66
2019-05-12T11:30:50.461Z,51.37
2019-05-12T11:33:23.786Z,50.73
2019-05-12T11:35:56.017Z,49.83
2019-05-12T11:38:28.120Z,50.07
2019-05-12T11:41:00.131Z,50.66
2019-05-12T11:43:33.796Z,51.25
2019-05-12T11:46:06.026Z,52.27
2019-05-12T11:48:40.243Z,53.87
2019-05-12T11:51:14.273Z,55.06
2019-05-12T11:53:45.792Z,55.75
2019-05-12T11:56:17.814Z,56.50
2019-05-12T11:58:51.499Z,57.37
2019-05-12T12:01:25.217Z,58.08
2019-05-12T12:03:57.413Z,58.10
2019-05-12T12:06:29.719Z,59.03
2019-05-12T12:09:03.831Z,61.02
2019-05-12T12:11:35.921Z,62.75
2019-05-12T12:14:10.550Z,64.06
2019-05-12T12:16:49.787Z,64.77
2019-05-12T12:19:15.624Z,64.75
2019-05-12T12:21:50.094Z,64.33
2019-05-12T12:24:29.742Z,63.96
2019-05-12T12:26:55.315Z,63.84
2019-05-12T12:29:28.287Z,64.66
2019-05-12T12:32:00.580Z,64.69
2019-05-12T12:34:33.182Z,64.53
2019-05-12T12:37:05.461Z,64.20
2019-05-12T12:39:37.453Z,63.84
2019-05-12T12:42:09.607Z,64.57
2019-05-12T12:44:41.599Z,64.49
2019-05-12T12:47:14.012Z,64.75
2019-05-12T12:49:49.250Z,65.07
2019-05-12T12:52:20.006Z,65.08
2019-05-12T12:54:54.190Z,65.77
2019-05-12T12:57:25.847Z,65.56
2019-05-12T12:59:59.654Z,65.91
2019-05-12T13:02:33.744Z,66.00
2019-05-12T13:05:05.687Z,66.77
2019-05-12T13:07:37.722Z,66.41
2019-05-12T13:10:10.959Z,66.63
2019-05-12T13:12:43.682Z,66.33
2019-05-12T13:15:16.367Z,65.52
2019-05-12T13:17:48.456Z,64.83
2019-05-12T13:20:20.703Z,64.62
2019-05-12T13:22:53.611Z,65.06
2019-05-12T13:25:25.824Z,65.23
2019-05-12T13:28:01.446Z,64.97
2019-05-12T13:30:45.918Z,65.30
2019-05-12T13:33:08.917Z,65.99
2019-05-12T13:35:40.659Z,66.15
2019-05-12T13:38:14.481Z,67.07
2019-05-12T13:40:46.703Z,67.55
2019-05-12T13:43:19.729Z,68.16
2019-05-12T13:45:53.468Z,68.45
2019-05-12T13:48:25.677Z,68.73
2019-05-12T13:51:07.397Z,68.57
2019-05-12T13:53:33.378Z,68.64
2019-05-12T13:56:05.043Z,68.84
2019-05-12T13:58:42.829Z,69.03
2019-05-12T14:01:19.941Z,68.71
2019-05-12T14:03:50.520Z,68.58
2019-05-12T14:06:23.041Z,68.46
2019-05-12T14:08:53.808Z,67.96
2019-05-12T14:11:26.137Z,67.96
2019-05-12T14:14:00.847Z,68.20
2019-05-12T14:16:33.897Z,68.95
2019-05-12T14:19:06.402Z,69.08
2019-05-12T14:21:41.207Z,69.46
2019-05-12T14:24:13.929Z,69.64
2019-05-12T14:26:49.392Z,69.75
2019-05-12T14:29:25.379Z,71.06
2019-05-12T14:31:59.617Z,71.17
2019-05-12T14:34:28.002Z,71.08
2019-05-12T14:37:08.453Z,71.19
2019-05-12T14:39:34.430Z,71.05
2019-05-12T14:42:06.739Z,70.83
2019-05-12T14:44:44.993Z,71.08
2019-05-12T14:47:12.459Z,71.14
2019-05-12T14:49:44.472Z,71.74
2019-05-12T14:52:16.539Z,71.88
2019-05-12T14:54:48.669Z,72.20
2019-05-12T14:57:20.943Z,72.00
2019-05-12T14:59:52.960Z,72.14
2019-05-12T15:02:28.206Z,72.57
2019-05-12T15:05:00.271Z,73.34
2019-05-12T15:07:32.568Z,73.33
2019-05-12T15:10:08.695Z,73.21
2019-05-12T15:12:38.439Z,73.82
2019-05-12T15:15:18.386Z,74.34
2019-05-12T15:17:44.810Z,74.60
2019-05-12T15:20:17.040Z,74.49
2019-05-12T15:22:51.655Z,74.66
2019-05-12T15:25:22.678Z,75.44
2019-05-12T15:27:54.780Z,76.57
2019-05-12T15:30:26.986Z,77.29
2019-05-12T15:32:59.130Z,76.98
2019-05-12T15:35:31.158Z,76.33
2019-05-12T15:38:03.883Z,76.36
2019-05-12T15:40:36.079Z,76.34
2019-05-12T15:43:09.327Z,76.36
2019-05-12T15:45:43.603Z,76.30
2019-05-12T15:48:18.417Z,76.16
2019-05-12T15:50:49.244Z,76.21
2019-05-12T15:53:22.379Z,76.01
2019-05-12T15:55:55.112Z,75.66
2019-05-12T15:58:27.175Z,75.45
2019-05-12T16:00:59.166Z,75.30
2019-05-12T16:03:31.335Z,75.23
2019-05-12T16:06:10.042Z,75.47
2019-05-12T16:08:37.331Z,76.16
2019-05-12T16:11:09.330Z,76.60
2019-05-12T16:13:44.849Z,76.74
2019-05-12T16:16:15.319Z,76.80
2019-05-12T16:18:50.630Z,76.44
2019-05-12T16:21:21.765Z,76.13
2019-05-12T16:23:56.724Z,76.16
2019-05-12T16:26:27.647Z,76.35
2019-05-12T16:29:03.173Z,76.66
2019-05-12T16:31:33.999Z,76.67
2019-05-12T16:34:06.300Z,76.75
2019-05-12T16:36:41.183Z,76.65
2019-05-12T16:39:13.490Z,76.62
2019-05-12T16:41:45.651Z,76.50
2019-05-12T16:44:23.091Z,76.85
2019-05-12T16:46:53.437Z,77.36
2019-05-12T16:49:33.354Z,77.87
2019-05-12T16:51:59.183Z,77.97
2019-05-12T16:54:33.437Z,78.27
2019-05-12T16:57:06.338Z,78.50
2019-05-12T16:59:38.853Z,78.79
2019-05-12T17:02:11.360Z,79.24
2019-05-12T17:04:43.472Z,79.71
2019-05-12T17:07:19.365Z,79.87
2019-05-12T17:09:49.455Z,80.06
2019-05-12T17:12:23.862Z,80.13
2019-05-12T17:14:55.201Z,80.31
2019-05-12T17:17:27.336Z,80.87
2019-05-12T17:19:59.331Z,81.06
2019-05-12T17:22:31.311Z,81.24
2019-05-12T17:25:04.958Z,81.36
2019-05-12T17:27:37.096Z,81.53
2019-05-12T17:30:09.680Z,81.90
2019-05-12T17:32:54.905Z,82.00
2019-05-12T17:35:20.169Z,81.95
2019-05-12T17:37:50.594Z,82.06
2019-05-12T17:40:24.283Z,82.10
2019-05-12T17:43:05.210Z,82.11
2019-05-12T17:45:30.408Z,82.11
2019-05-12T17:48:07.418Z,82.18
2019-05-12T17:50:40.349Z,82.39
2019-05-12T17:53:13.576Z,82.50
2019-05-12T17:55:51.285Z,82.44
2019-05-12T17:58:18.323Z,82.43
2019-05-12T18:00:51.909Z,82.29
2019-05-12T18:03:25.759Z,82.20
2019-05-12T18:05:57.984Z,81.68
2019-05-12T18:08:35.824Z,81.68
2019-05-12T18:11:03.933Z,81.76
2019-05-12T18:13:39.807Z,82.01
2019-05-12T18:16:11.418Z,82.32
2019-05-12T18:18:44.373Z,82.46
2019-05-12T18:21:21.485Z,82.95
2019-05-12T18:23:53.660Z,83.06
2019-05-12T18:26:25.980Z,83.33
2019-05-12T18:28:58.137Z,83.32
2019-05-12T18:31:30.516Z,83.34
2019-05-12T18:34:04.745Z,83.13
2019-05-12T18:36:36.304Z,82.86
2019-05-12T18:39:11.841Z,82.48
2019-05-12T18:41:43.926Z,82.32
2019-05-12T18:44:25.293Z,82.05
2019-05-12T18:46:49.981Z,81.93
2019-05-12T18:49:23.843Z,81.70
2019-05-12T18:51:57.226Z,81.62
2019-05-12T18:54:29.496Z,81.54
2019-05-12T18:57:03.113Z,81.55
2019-05-12T18:59:35.209Z,81.60
2019-05-12T19:02:07.606Z,81.89
2019-05-12T19:04:41.226Z,81.56
2019-05-12T19:07:15.322Z,81.18
2019-05-12T19:09:47.583Z,80.72
2019-05-12T19:12:21.608Z,80.98
2019-05-12T19:14:54.719Z,80.98
2019-05-12T19:17:26.839Z,81.25
2019-05-12T19:19:59.781Z,81.35
2019-05-12T19:22:33.649Z,81.45
2019-05-12T19:25:06.037Z,81.29
2019-05-12T19:27:38.066Z,81.29
2019-05-12T19:30:10.206Z,81.05
2019-05-12T19:32:44.471Z,81.32
2019-05-12T19:35:20.354Z,81.33
2019-05-12T19:37:50.793Z,81.67
2019-05-12T19:40:22.920Z,81.61
2019-05-12T19:43:02.119Z,81.70
2019-05-12T19:45:28.878Z,81.64
2019-05-12T19:48:01.252Z,81.81
2019-05-12T19:50:33.377Z,81.87
2019-05-12T19:53:05.609Z,82.00
2019-05-12T19:55:37.651Z,82.25
2019-05-12T19:58:11.375Z,82.19
2019-05-12T20:00:44.445Z,82.19
2019-05-12T20:03:16.659Z,82.23
2019-05-12T20:05:48.853Z,82.19
2019-05-12T20:08:21.025Z,82.45
2019-05-12T20:10:54.148Z,82.59
2019-05-12T20:13:29.546Z,82.43
2019-05-12T20:16:01.338Z,82.42
2019-05-12T20:18:36.092Z,82.53
2019-05-12T20:21:07.164Z,82.61
2019-05-12T20:23:39.365Z,82.76
2019-05-12T20:26:11.459Z,82.86
2019-05-12T20:28:50.087Z,83.03
2019-05-12T20:31:17.300Z,83.32
2019-05-12T20:33:49.337Z,83.87
2019-05-12T20:36:25.912Z,84.04
2019-05-12T20:38:55.612Z,84.32
2019-05-12T20:41:27.699Z,84.73
2019-05-12T20:43:59.758Z,84.96
2019-05-12T20:46:33.969Z,85.09
2019-05-12T20:49:09.703Z,85.09
2019-05-12T20:51:40.171Z,85.04
2019-05-12T20:54:17.938Z,84.93
2019-05-12T20:56:47.048Z,84.51
2019-05-12T20:59:21.953Z,84.75
2019-05-12T21:01:53.195Z,84.32
2019-05-12T21:04:31.434Z,84.22
2019-05-12T21:06:59.103Z,84.18
2019-05-12T21:09:31.202Z,84.03
2019-05-12T21:12:03.175Z,84.01
2019-05-12T21:14:35.167Z,83.70
2019-05-12T21:17:08.861Z,83.49
2019-05-12T21:19:55.454Z,83.45
2019-05-12T21:22:15.041Z,83.44
2019-05-12T21:24:47.061Z,83.36
2019-05-12T21:27:19.940Z,83.48
2019-05-12T21:29:54.083Z,83.53
2019-05-12T21:32:25.717Z,83.51
2019-05-12T21:34:59.466Z,83.43
2019-05-12T21:37:38.674Z,83.43
2019-05-12T21:40:06.346Z,83.37
2019-05-12T21:42:38.526Z,83.38
2019-05-12T21:45:10.609Z,83.43
2019-05-12T21:47:44.343Z,83.50
2019-05-12T21:50:16.941Z,83.39
2019-05-12T21:52:49.039Z,83.31
2019-05-12T21:55:23.215Z,83.28
2019-05-12T21:57:55.003Z,83.16
2019-05-12T22:00:36.830Z,83.02
2019-05-12T22:03:12.994Z,83.13
2019-05-12T22:05:51.302Z,82.83
2019-05-12T22:08:22.033Z,82.78
2019-05-12T22:10:54.219Z,82.78
2019-05-12T22:13:28.154Z,82.90
2019-05-12T22:16:00.668Z,82.85
2019-05-12T22:18:33.345Z,82.72
2019-05-12T22:21:07.203Z,82.61
2019-05-12T22:23:44.533Z,82.76
2019-05-12T22:26:13.030Z,82.77
2019-05-12T22:28:50.836Z,82.66
2019-05-12T22:31:20.961Z,82.69
2019-05-12T22:33:56.393Z,82.63
2019-05-12T22:36:30.129Z,82.66
2019-05-12T22:39:03.089Z,82.65
2019-05-12T22:41:41.111Z,82.82
2019-05-12T22:44:09.274Z,82.71
2019-05-12T22:46:43.576Z,82.58
2019-05-12T22:49:20.730Z,82.58
2019-05-12T22:51:54.561Z,82.67
2019-05-12T22:54:24.287Z,82.78
2019-05-12T22:56:56.980Z,82.82
2019-05-12T22:59:32.076Z,82.78
2019-05-12T23:02:04.446Z,82.58
2019-05-12T23:04:40.404Z,82.63
2019-05-12T23:07:13.652Z,82.52
2019-05-12T23:09:46.041Z,82.43
2019-05-12T23:12:20.079Z,82.25
2019-05-12T23:14:56.505Z,82.31
2019-05-12T23:17:25.988Z,82.44
2019-05-12T23:19:57.962Z,82.65
2019-05-12T23:22:35.009Z,82.78
2019-05-12T23:25:04.334Z,82.71
2019-05-12T23:27:36.296Z,82.79
2019-05-12T23:30:12.595Z,82.91
2019-05-12T23:32:51.275Z,82.98
2019-05-12T23:35:17.619Z,83.04
2019-05-12T23:37:50.370Z,83.06
2019-05-12T23:40:23.591Z,83.27
2019-05-12T23:42:55.746Z,83.33
2019-05-12T23:45:27.723Z,83.71
2019-05-12T23:47:59.759Z,84.11
2019-05-12T23:50:31.779Z,84.33
2019-05-12T23:53:04.035Z,84.51
2019-05-12T23:55:36.081Z,84.88
2019-05-12T23:58:08.092Z,85.23
